MYAF Airport Information

Runway Information
Runway 09 Length 4355 ft width 100 ft
Elevation ft Threshold ft Heading 90
Runway 27 Length 4355 ft Width 100 ft
Elevation ft Threshold ft Heading 270
Airport Frequencies
Type OPS Name AUTEC OPS Frequency 126.3 MHZ
Type UNIC Name UNICOM Frequency 122.8 MHZ
Airport Navaids
Airport Weather Information & NOTAM
ADDS - METARS form results

(2350 UTC 18 August 2022)
Data provider http://aviationweather.gov/metar/data/
 
METAR text: MYAF 182300Z AUTO VRB01KT CAVOK 27/23 A2998
Conditions at: MYAF (ANDROS TOWN , BS) observed 2300 UTC 18 August 2022
Temperature: 27.0°C (81°F)
Dewpoint: 23.0°C (73°F) [RH = 79%]
Pressure (altimeter): 29.98 inches Hg (1015.3 mb)
Winds: variable direction winds at 1 MPH (1 knots; 0.5 m/s)
Visibility: 6 or more miles (10+ km)
Ceiling: ceiling and visibility are OK
Clouds: unknown
Weather: no significant weather observed at this time